sensor_id;sensor_type;location;lat;lon;timestamp;P1;durP1;ratioP1;P2;durP2;ratioP2
74177;SDS011;62540;48.456;-4.456;2023-04-24T00:00:42;6.00;;;5.75;;
74177;SDS011;62540;48.456;-4.456;2023-04-24T00:03:10;7.00;;;6.00;;
74177;SDS011;62540;48.456;-4.456;2023-04-24T00:05:35;6.00;;;5.00;;
74177;SDS011;62540;48.456;-4.456;2023-04-24T00:08:01;7.25;;;6.00;;
74177;SDS011;62540;48.456;-4.456;2023-04-24T00:10:26;7.25;;;6.75;;
74177;SDS011;62540;48.456;-4.456;2023-04-24T00:12:52;6.50;;;5.50;;
74177;SDS011;62540;48.456;-4.456;2023-04-24T00:15:17;6.00;;;5.75;;
74177;SDS011;62540;48.456;-4.456;2023-04-24T00:17:43;6.50;;;5.00;;
74177;SDS011;62540;48.456;-4.456;2023-04-24T00:20:08;6.75;;;6.50;;
74177;SDS011;62540;48.456;-4.456;2023-04-24T00:22:35;5.50;;;5.50;;
74177;SDS011;62540;48.456;-4.456;2023-04-24T00:25:00;6.50;;;4.75;;
74177;SDS011;62540;48.456;-4.456;2023-04-24T00:27:26;8.00;;;7.25;;
74177;SDS011;62540;48.456;-4.456;2023-04-24T00:29:51;6.25;;;6.25;;
74177;SDS011;62540;48.456;-4.456;2023-04-24T00:32:17;4.00;;;4.00;;
74177;SDS011;62540;48.456;-4.456;2023-04-24T00:34:42;6.00;;;6.00;;
74177;SDS011;62540;48.456;-4.456;2023-04-24T00:37:08;8.00;;;8.00;;
74177;SDS011;62540;48.456;-4.456;2023-04-24T00:39:33;5.75;;;5.50;;
74177;SDS011;62540;48.456;-4.456;2023-04-24T00:41:59;5.50;;;4.75;;
74177;SDS011;62540;48.456;-4.456;2023-04-24T00:44:24;7.00;;;6.75;;
74177;SDS011;62540;48.456;-4.456;2023-04-24T00:46:50;4.50;;;4.00;;
74177;SDS011;62540;48.456;-4.456;2023-04-24T00:49:19;7.00;;;7.00;;
74177;SDS011;62540;48.456;-4.456;2023-04-24T00:51:45;7.00;;;7.00;;
74177;SDS011;62540;48.456;-4.456;2023-04-24T00:54:12;5.75;;;5.75;;
74177;SDS011;62540;48.456;-4.456;2023-04-24T00:56:38;6.00;;;5.75;;
74177;SDS011;62540;48.456;-4.456;2023-04-24T00:59:03;7.25;;;7.25;;
74177;SDS011;62540;48.456;-4.456;2023-04-24T01:01:30;6.25;;;5.50;;
74177;SDS011;62540;48.456;-4.456;2023-04-24T01:03:55;5.75;;;5.75;;
74177;SDS011;62540;48.456;-4.456;2023-04-24T01:06:22;7.75;;;7.00;;
74177;SDS011;62540;48.456;-4.456;2023-04-24T01:08:52;8.00;;;7.00;;
74177;SDS011;62540;48.456;-4.456;2023-04-24T01:11:18;7.00;;;6.25;;
74177;SDS011;62540;48.456;-4.456;2023-04-24T01:13:43;7.00;;;6.75;;
74177;SDS011;62540;48.456;-4.456;2023-04-24T01:16:10;6.00;;;6.00;;
74177;SDS011;62540;48.456;-4.456;2023-04-24T01:18:35;7.50;;;6.25;;
74177;SDS011;62540;48.456;-4.456;2023-04-24T01:21:02;8.00;;;7.00;;
74177;SDS011;62540;48.456;-4.456;2023-04-24T01:23:28;9.25;;;7.00;;
74177;SDS011;62540;48.456;-4.456;2023-04-24T01:25:54;5.50;;;5.00;;
74177;SDS011;62540;48.456;-4.456;2023-04-24T01:28:20;7.50;;;7.50;;
74177;SDS011;62540;48.456;-4.456;2023-04-24T01:30:46;7.00;;;6.75;;
74177;SDS011;62540;48.456;-4.456;2023-04-24T01:33:12;8.00;;;7.00;;
74177;SDS011;62540;48.456;-4.456;2023-04-24T01:35:38;8.00;;;6.25;;
74177;SDS011;62540;48.456;-4.456;2023-04-24T01:38:03;7.00;;;6.50;;
74177;SDS011;62540;48.456;-4.456;2023-04-24T01:40:30;8.50;;;7.25;;
74177;SDS011;62540;48.456;-4.456;2023-04-24T01:42:56;6.50;;;5.50;;
74177;SDS011;62540;48.456;-4.456;2023-04-24T01:45:22;9.25;;;8.00;;
74177;SDS011;62540;48.456;-4.456;2023-04-24T01:47:48;8.00;;;7.25;;
74177;SDS011;62540;48.456;-4.456;2023-04-24T01:50:14;10.25;;;8.50;;
74177;SDS011;62540;48.456;-4.456;2023-04-24T01:52:40;8.75;;;6.75;;
74177;SDS011;62540;48.456;-4.456;2023-04-24T01:55:05;7.00;;;7.00;;
74177;SDS011;62540;48.456;-4.456;2023-04-24T01:57:32;11.00;;;8.75;;
74177;SDS011;62540;48.456;-4.456;2023-04-24T01:59:58;7.00;;;7.00;;
74177;SDS011;62540;48.456;-4.456;2023-04-24T02:02:23;9.50;;;7.25;;
74177;SDS011;62540;48.456;-4.456;2023-04-24T02:04:49;8.25;;;8.25;;
74177;SDS011;62540;48.456;-4.456;2023-04-24T02:07:15;5.75;;;5.25;;
74177;SDS011;62540;48.456;-4.456;2023-04-24T02:09:41;8.50;;;8.50;;
74177;SDS011;62540;48.456;-4.456;2023-04-24T02:12:06;4.75;;;4.75;;
74177;SDS011;62540;48.456;-4.456;2023-04-24T02:14:32;7.25;;;5.75;;
74177;SDS011;62540;48.456;-4.456;2023-04-24T02:16:57;8.00;;;6.00;;
74177;SDS011;62540;48.456;-4.456;2023-04-24T02:19:23;7.25;;;6.25;;
74177;SDS011;62540;48.456;-4.456;2023-04-24T02:21:48;5.25;;;4.00;;
74177;SDS011;62540;48.456;-4.456;2023-04-24T02:24:14;7.00;;;6.00;;
74177;SDS011;62540;48.456;-4.456;2023-04-24T02:26:39;6.75;;;6.00;;
74177;SDS011;62540;48.456;-4.456;2023-04-24T02:29:05;6.00;;;6.00;;
74177;SDS011;62540;48.456;-4.456;2023-04-24T02:31:30;6.50;;;6.00;;
74177;SDS011;62540;48.456;-4.456;2023-04-24T02:33:55;8.00;;;7.50;;
74177;SDS011;62540;48.456;-4.456;2023-04-24T02:36:21;5.25;;;5.00;;
74177;SDS011;62540;48.456;-4.456;2023-04-24T02:38:46;5.50;;;4.00;;
74177;SDS011;62540;48.456;-4.456;2023-04-24T02:41:12;6.25;;;5.75;;
74177;SDS011;62540;48.456;-4.456;2023-04-24T02:43:37;2.00;;;2.00;;
74177;SDS011;62540;48.456;-4.456;2023-04-24T02:46:02;5.00;;;4.75;;
74177;SDS011;62540;48.456;-4.456;2023-04-24T02:48:28;5.50;;;5.00;;
74177;SDS011;62540;48.456;-4.456;2023-04-24T02:50:53;3.75;;;3.75;;
74177;SDS011;62540;48.456;-4.456;2023-04-24T02:53:19;6.25;;;6.00;;
74177;SDS011;62540;48.456;-4.456;2023-04-24T02:55:45;7.00;;;4.25;;
74177;SDS011;62540;48.456;-4.456;2023-04-24T02:58:11;5.25;;;4.50;;
74177;SDS011;62540;48.456;-4.456;2023-04-24T03:00:37;6.00;;;5.25;;
74177;SDS011;62540;48.456;-4.456;2023-04-24T03:03:03;4.25;;;4.25;;
74177;SDS011;62540;48.456;-4.456;2023-04-24T03:05:29;6.50;;;6.00;;
74177;SDS011;62540;48.456;-4.456;2023-04-24T03:07:56;5.00;;;4.25;;
74177;SDS011;62540;48.456;-4.456;2023-04-24T03:10:21;8.25;;;7.00;;
74177;SDS011;62540;48.456;-4.456;2023-04-24T03:12:49;7.00;;;6.00;;
74177;SDS011;62540;48.456;-4.456;2023-04-24T03:15:14;6.25;;;5.75;;
74177;SDS011;62540;48.456;-4.456;2023-04-24T03:17:41;7.00;;;6.25;;
74177;SDS011;62540;48.456;-4.456;2023-04-24T03:20:07;7.25;;;6.50;;
74177;SDS011;62540;48.456;-4.456;2023-04-24T03:22:35;5.75;;;5.75;;
74177;SDS011;62540;48.456;-4.456;2023-04-24T03:25:01;5.75;;;5.00;;
74177;SDS011;62540;48.456;-4.456;2023-04-24T03:27:26;7.25;;;6.50;;
74177;SDS011;62540;48.456;-4.456;2023-04-24T03:29:52;7.00;;;6.00;;
74177;SDS011;62540;48.456;-4.456;2023-04-24T03:32:20;6.00;;;5.25;;
74177;SDS011;62540;48.456;-4.456;2023-04-24T03:34:47;7.50;;;6.00;;
74177;SDS011;62540;48.456;-4.456;2023-04-24T03:37:13;7.00;;;6.25;;
74177;SDS011;62540;48.456;-4.456;2023-04-24T03:39:38;7.75;;;5.75;;
74177;SDS011;62540;48.456;-4.456;2023-04-24T03:42:04;9.25;;;7.25;;
74177;SDS011;62540;48.456;-4.456;2023-04-24T03:44:29;9.75;;;5.00;;
74177;SDS011;62540;48.456;-4.456;2023-04-24T03:46:54;5.50;;;5.50;;
74177;SDS011;62540;48.456;-4.456;2023-04-24T03:49:20;7.00;;;6.00;;
74177;SDS011;62540;48.456;-4.456;2023-04-24T03:51:45;9.00;;;6.00;;
74177;SDS011;62540;48.456;-4.456;2023-04-24T03:54:11;7.00;;;5.00;;
74177;SDS011;62540;48.456;-4.456;2023-04-24T03:56:36;5.00;;;5.00;;
74177;SDS011;62540;48.456;-4.456;2023-04-24T03:59:01;7.00;;;6.00;;
74177;SDS011;62540;48.456;-4.456;2023-04-24T04:01:27;6.50;;;6.00;;
74177;SDS011;62540;48.456;-4.456;2023-04-24T04:03:53;7.00;;;5.75;;
74177;SDS011;62540;48.456;-4.456;2023-04-24T04:06:18;9.50;;;7.50;;
74177;SDS011;62540;48.456;-4.456;2023-04-24T04:08:44;7.00;;;6.50;;
74177;SDS011;62540;48.456;-4.456;2023-04-24T04:11:09;5.50;;;4.50;;
74177;SDS011;62540;48.456;-4.456;2023-04-24T04:13:35;6.00;;;6.00;;
74177;SDS011;62540;48.456;-4.456;2023-04-24T04:16:00;7.00;;;4.75;;
74177;SDS011;62540;48.456;-4.456;2023-04-24T04:18:26;7.00;;;6.00;;
74177;SDS011;62540;48.456;-4.456;2023-04-24T04:20:51;8.00;;;6.00;;
74177;SDS011;62540;48.456;-4.456;2023-04-24T04:23:16;8.00;;;6.00;;
74177;SDS011;62540;48.456;-4.456;2023-04-24T04:25:42;6.25;;;5.00;;
74177;SDS011;62540;48.456;-4.456;2023-04-24T04:28:07;6.00;;;5.00;;
74177;SDS011;62540;48.456;-4.456;2023-04-24T04:30:33;8.00;;;5.00;;
74177;SDS011;62540;48.456;-4.456;2023-04-24T04:32:58;6.00;;;6.00;;
74177;SDS011;62540;48.456;-4.456;2023-04-24T04:35:24;6.00;;;5.00;;
74177;SDS011;62540;48.456;-4.456;2023-04-24T04:37:50;6.25;;;6.00;;
74177;SDS011;62540;48.456;-4.456;2023-04-24T04:40:16;6.50;;;5.25;;
74177;SDS011;62540;48.456;-4.456;2023-04-24T04:42:42;4.00;;;3.50;;
74177;SDS011;62540;48.456;-4.456;2023-04-24T04:45:10;7.00;;;5.75;;
74177;SDS011;62540;48.456;-4.456;2023-04-24T04:47:36;5.50;;;5.50;;
74177;SDS011;62540;48.456;-4.456;2023-04-24T04:50:01;6.00;;;6.00;;
74177;SDS011;62540;48.456;-4.456;2023-04-24T04:52:28;8.00;;;7.00;;
74177;SDS011;62540;48.456;-4.456;2023-04-24T04:54:54;5.75;;;5.00;;
74177;SDS011;62540;48.456;-4.456;2023-04-24T04:57:20;7.50;;;7.50;;
74177;SDS011;62540;48.456;-4.456;2023-04-24T04:59:46;6.00;;;5.25;;
74177;SDS011;62540;48.456;-4.456;2023-04-24T05:02:11;8.00;;;6.50;;
74177;SDS011;62540;48.456;-4.456;2023-04-24T05:04:37;9.00;;;7.00;;
74177;SDS011;62540;48.456;-4.456;2023-04-24T05:07:02;7.75;;;6.00;;
74177;SDS011;62540;48.456;-4.456;2023-04-24T05:09:28;7.00;;;6.25;;
74177;SDS011;62540;48.456;-4.456;2023-04-24T05:11:54;8.00;;;7.00;;
74177;SDS011;62540;48.456;-4.456;2023-04-24T05:14:20;11.50;;;7.00;;
74177;SDS011;62540;48.456;-4.456;2023-04-24T05:16:45;9.25;;;8.50;;
74177;SDS011;62540;48.456;-4.456;2023-04-24T05:19:11;8.00;;;6.00;;
74177;SDS011;62540;48.456;-4.456;2023-04-24T05:21:38;6.75;;;6.00;;
74177;SDS011;62540;48.456;-4.456;2023-04-24T05:24:04;6.75;;;6.00;;
74177;SDS011;62540;48.456;-4.456;2023-04-24T05:26:30;5.50;;;5.00;;
74177;SDS011;62540;48.456;-4.456;2023-04-24T05:28:55;6.00;;;5.25;;
74177;SDS011;62540;48.456;-4.456;2023-04-24T05:31:21;13.00;;;11.00;;
74177;SDS011;62540;48.456;-4.456;2023-04-24T05:33:46;11.50;;;9.50;;
74177;SDS011;62540;48.456;-4.456;2023-04-24T05:36:12;10.00;;;8.75;;
74177;SDS011;62540;48.456;-4.456;2023-04-24T05:38:38;10.00;;;9.00;;
74177;SDS011;62540;48.456;-4.456;2023-04-24T05:41:03;11.50;;;10.50;;
74177;SDS011;62540;48.456;-4.456;2023-04-24T05:43:29;8.25;;;8.00;;
74177;SDS011;62540;48.456;-4.456;2023-04-24T05:45:54;8.50;;;7.25;;
74177;SDS011;62540;48.456;-4.456;2023-04-24T05:48:20;7.00;;;7.00;;
74177;SDS011;62540;48.456;-4.456;2023-04-24T05:50:47;7.75;;;7.75;;
74177;SDS011;62540;48.456;-4.456;2023-04-24T05:53:13;11.50;;;7.25;;
74177;SDS011;62540;48.456;-4.456;2023-04-24T05:55:38;9.00;;;6.50;;
74177;SDS011;62540;48.456;-4.456;2023-04-24T05:58:04;7.00;;;6.50;;
74177;SDS011;62540;48.456;-4.456;2023-04-24T06:00:29;9.75;;;7.75;;
74177;SDS011;62540;48.456;-4.456;2023-04-24T06:02:55;10.25;;;7.50;;
74177;SDS011;62540;48.456;-4.456;2023-04-24T06:05:20;7.75;;;6.75;;
74177;SDS011;62540;48.456;-4.456;2023-04-24T06:07:46;12.75;;;7.25;;
74177;SDS011;62540;48.456;-4.456;2023-04-24T06:10:11;7.00;;;6.00;;
74177;SDS011;62540;48.456;-4.456;2023-04-24T06:12:36;6.00;;;6.00;;
74177;SDS011;62540;48.456;-4.456;2023-04-24T06:15:02;6.50;;;6.25;;
74177;SDS011;62540;48.456;-4.456;2023-04-24T06:17:28;10.75;;;9.00;;
74177;SDS011;62540;48.456;-4.456;2023-04-24T06:19:54;10.50;;;9.25;;
74177;SDS011;62540;48.456;-4.456;2023-04-24T06:22:19;9.75;;;9.00;;
74177;SDS011;62540;48.456;-4.456;2023-04-24T06:24:44;9.00;;;8.00;;
74177;SDS011;62540;48.456;-4.456;2023-04-24T06:27:10;9.50;;;8.00;;
74177;SDS011;62540;48.456;-4.456;2023-04-24T06:29:36;9.50;;;8.50;;
74177;SDS011;62540;48.456;-4.456;2023-04-24T06:32:01;9.00;;;8.00;;
74177;SDS011;62540;48.456;-4.456;2023-04-24T06:34:27;9.75;;;9.75;;
74177;SDS011;62540;48.456;-4.456;2023-04-24T06:36:53;7.00;;;7.00;;
74177;SDS011;62540;48.456;-4.456;2023-04-24T06:39:19;8.25;;;7.00;;
74177;SDS011;62540;48.456;-4.456;2023-04-24T06:41:45;8.00;;;8.00;;
74177;SDS011;62540;48.456;-4.456;2023-04-24T06:44:10;9.50;;;7.50;;
74177;SDS011;62540;48.456;-4.456;2023-04-24T06:46:36;6.00;;;6.00;;
74177;SDS011;62540;48.456;-4.456;2023-04-24T06:49:01;8.00;;;7.75;;
74177;SDS011;62540;48.456;-4.456;2023-04-24T06:51:26;5.50;;;4.00;;
74177;SDS011;62540;48.456;-4.456;2023-04-24T06:53:55;9.75;;;8.25;;
74177;SDS011;62540;48.456;-4.456;2023-04-24T06:56:23;6.25;;;6.25;;
74177;SDS011;62540;48.456;-4.456;2023-04-24T06:58:49;7.75;;;6.75;;
74177;SDS011;62540;48.456;-4.456;2023-04-24T07:01:14;10.25;;;8.75;;
74177;SDS011;62540;48.456;-4.456;2023-04-24T07:03:40;8.00;;;7.00;;
74177;SDS011;62540;48.456;-4.456;2023-04-24T07:06:05;9.75;;;7.25;;
74177;SDS011;62540;48.456;-4.456;2023-04-24T07:08:31;7.25;;;6.50;;
74177;SDS011;62540;48.456;-4.456;2023-04-24T07:10:58;6.00;;;6.00;;
74177;SDS011;62540;48.456;-4.456;2023-04-24T07:13:23;10.75;;;7.50;;
74177;SDS011;62540;48.456;-4.456;2023-04-24T07:15:49;10.50;;;8.00;;
74177;SDS011;62540;48.456;-4.456;2023-04-24T07:18:16;9.25;;;7.75;;
74177;SDS011;62540;48.456;-4.456;2023-04-24T07:20:42;7.00;;;7.00;;
74177;SDS011;62540;48.456;-4.456;2023-04-24T07:23:07;8.50;;;6.00;;
74177;SDS011;62540;48.456;-4.456;2023-04-24T07:25:33;8.75;;;7.75;;
74177;SDS011;62540;48.456;-4.456;2023-04-24T07:27:58;6.00;;;5.50;;
74177;SDS011;62540;48.456;-4.456;2023-04-24T07:30:24;6.00;;;5.50;;
74177;SDS011;62540;48.456;-4.456;2023-04-24T07:32:49;5.25;;;4.00;;
74177;SDS011;62540;48.456;-4.456;2023-04-24T07:35:15;7.25;;;7.00;;
74177;SDS011;62540;48.456;-4.456;2023-04-24T07:37:41;6.00;;;5.25;;
74177;SDS011;62540;48.456;-4.456;2023-04-24T07:40:11;4.50;;;4.25;;
74177;SDS011;62540;48.456;-4.456;2023-04-24T07:42:37;6.25;;;5.75;;
74177;SDS011;62540;48.456;-4.456;2023-04-24T07:45:03;5.50;;;5.00;;
74177;SDS011;62540;48.456;-4.456;2023-04-24T07:47:29;6.00;;;6.00;;
74177;SDS011;62540;48.456;-4.456;2023-04-24T07:49:55;5.50;;;5.25;;
74177;SDS011;62540;48.456;-4.456;2023-04-24T07:52:20;7.00;;;6.75;;
74177;SDS011;62540;48.456;-4.456;2023-04-24T07:54:46;5.25;;;4.50;;
74177;SDS011;62540;48.456;-4.456;2023-04-24T07:57:11;7.00;;;4.75;;
74177;SDS011;62540;48.456;-4.456;2023-04-24T07:59:37;7.50;;;5.25;;
74177;SDS011;62540;48.456;-4.456;2023-04-24T08:02:02;5.25;;;4.25;;
74177;SDS011;62540;48.456;-4.456;2023-04-24T08:04:27;3.75;;;3.75;;
74177;SDS011;62540;48.456;-4.456;2023-04-24T08:06:53;6.50;;;3.25;;
74177;SDS011;62540;48.456;-4.456;2023-04-24T08:09:18;4.00;;;3.25;;
74177;SDS011;62540;48.456;-4.456;2023-04-24T08:11:44;3.25;;;3.00;;
74177;SDS011;62540;48.456;-4.456;2023-04-24T08:14:10;3.75;;;2.75;;
74177;SDS011;62540;48.456;-4.456;2023-04-24T08:16:37;5.00;;;4.00;;
74177;SDS011;62540;48.456;-4.456;2023-04-24T08:19:02;6.00;;;4.00;;
74177;SDS011;62540;48.456;-4.456;2023-04-24T08:21:28;4.00;;;4.00;;
74177;SDS011;62540;48.456;-4.456;2023-04-24T08:23:53;6.25;;;3.00;;
74177;SDS011;62540;48.456;-4.456;2023-04-24T08:26:18;3.00;;;3.00;;
74177;SDS011;62540;48.456;-4.456;2023-04-24T08:28:44;4.00;;;4.00;;
74177;SDS011;62540;48.456;-4.456;2023-04-24T08:31:09;4.75;;;3.75;;
74177;SDS011;62540;48.456;-4.456;2023-04-24T08:33:35;3.25;;;3.00;;
74177;SDS011;62540;48.456;-4.456;2023-04-24T08:36:02;4.00;;;3.00;;
74177;SDS011;62540;48.456;-4.456;2023-04-24T08:38:28;2.75;;;2.75;;
74177;SDS011;62540;48.456;-4.456;2023-04-24T08:40:54;7.25;;;3.50;;
74177;SDS011;62540;48.456;-4.456;2023-04-24T08:43:21;4.00;;;3.00;;
74177;SDS011;62540;48.456;-4.456;2023-04-24T08:45:47;4.00;;;2.50;;
74177;SDS011;62540;48.456;-4.456;2023-04-24T08:48:12;3.25;;;3.00;;
74177;SDS011;62540;48.456;-4.456;2023-04-24T08:50:40;3.50;;;3.00;;
74177;SDS011;62540;48.456;-4.456;2023-04-24T08:53:08;3.00;;;3.00;;
74177;SDS011;62540;48.456;-4.456;2023-04-24T08:55:33;2.25;;;2.25;;
74177;SDS011;62540;48.456;-4.456;2023-04-24T08:57:59;2.00;;;2.00;;
74177;SDS011;62540;48.456;-4.456;2023-04-24T09:00:27;3.00;;;3.00;;
74177;SDS011;62540;48.456;-4.456;2023-04-24T09:02:53;2.50;;;2.25;;
74177;SDS011;62540;48.456;-4.456;2023-04-24T09:05:21;2.00;;;2.00;;
74177;SDS011;62540;48.456;-4.456;2023-04-24T09:07:49;2.00;;;2.00;;
74177;SDS011;62540;48.456;-4.456;2023-04-24T09:10:19;3.25;;;2.25;;
74177;SDS011;62540;48.456;-4.456;2023-04-24T09:12:46;1.75;;;1.00;;
74177;SDS011;62540;48.456;-4.456;2023-04-24T09:15:11;2.00;;;2.00;;
74177;SDS011;62540;48.456;-4.456;2023-04-24T09:17:37;3.75;;;2.00;;
74177;SDS011;62540;48.456;-4.456;2023-04-24T09:20:03;4.00;;;3.00;;
74177;SDS011;62540;48.456;-4.456;2023-04-24T09:22:29;4.50;;;3.00;;
74177;SDS011;62540;48.456;-4.456;2023-04-24T09:25:02;3.00;;;2.00;;
74177;SDS011;62540;48.456;-4.456;2023-04-24T09:27:31;5.25;;;2.50;;
74177;SDS011;62540;48.456;-4.456;2023-04-24T09:29:57;2.00;;;1.75;;
74177;SDS011;62540;48.456;-4.456;2023-04-24T09:32:23;6.25;;;3.50;;
74177;SDS011;62540;48.456;-4.456;2023-04-24T09:35:04;3.50;;;2.00;;
74177;SDS011;62540;48.456;-4.456;2023-04-24T09:37:44;3.00;;;2.25;;
74177;SDS011;62540;48.456;-4.456;2023-04-24T09:40:11;3.50;;;3.00;;
74177;SDS011;62540;48.456;-4.456;2023-04-24T09:42:37;2.75;;;2.75;;
74177;SDS011;62540;48.456;-4.456;2023-04-24T09:45:04;4.00;;;3.00;;
74177;SDS011;62540;48.456;-4.456;2023-04-24T09:47:39;4.75;;;3.50;;
74177;SDS011;62540;48.456;-4.456;2023-04-24T09:50:15;4.00;;;3.00;;
74177;SDS011;62540;48.456;-4.456;2023-04-24T09:52:42;3.25;;;3.25;;
74177;SDS011;62540;48.456;-4.456;2023-04-24T09:55:20;2.00;;;2.00;;
74177;SDS011;62540;48.456;-4.456;2023-04-24T09:57:59;4.50;;;3.75;;
74177;SDS011;62540;48.456;-4.456;2023-04-24T10:00:29;4.50;;;3.25;;
74177;SDS011;62540;48.456;-4.456;2023-04-24T10:02:57;17.00;;;15.75;;
74177;SDS011;62540;48.456;-4.456;2023-04-24T10:05:24;10.50;;;7.75;;
74177;SDS011;62540;48.456;-4.456;2023-04-24T10:07:55;12.00;;;7.75;;
74177;SDS011;62540;48.456;-4.456;2023-04-24T10:10:22;7.75;;;6.75;;
74177;SDS011;62540;48.456;-4.456;2023-04-24T10:12:47;3.00;;;3.00;;
74177;SDS011;62540;48.456;-4.456;2023-04-24T10:15:16;5.50;;;5.50;;
74177;SDS011;62540;48.456;-4.456;2023-04-24T10:17:46;9.50;;;6.75;;
74177;SDS011;62540;48.456;-4.456;2023-04-24T10:20:21;5.25;;;4.50;;
74177;SDS011;62540;48.456;-4.456;2023-04-24T10:22:49;9.50;;;8.75;;
74177;SDS011;62540;48.456;-4.456;2023-04-24T10:25:20;4.25;;;4.00;;
74177;SDS011;62540;48.456;-4.456;2023-04-24T10:27:48;6.00;;;5.00;;
74177;SDS011;62540;48.456;-4.456;2023-04-24T10:30:15;4.00;;;4.00;;
74177;SDS011;62540;48.456;-4.456;2023-04-24T10:32:41;3.00;;;3.00;;
74177;SDS011;62540;48.456;-4.456;2023-04-24T10:35:07;4.00;;;3.00;;
74177;SDS011;62540;48.456;-4.456;2023-04-24T10:37:35;3.25;;;2.75;;
74177;SDS011;62540;48.456;-4.456;2023-04-24T10:40:04;4.00;;;3.75;;
74177;SDS011;62540;48.456;-4.456;2023-04-24T10:42:30;4.00;;;2.00;;
74177;SDS011;62540;48.456;-4.456;2023-04-24T10:44:56;3.25;;;3.00;;
74177;SDS011;62540;48.456;-4.456;2023-04-24T10:47:23;4.50;;;2.75;;
74177;SDS011;62540;48.456;-4.456;2023-04-24T10:49:50;5.00;;;4.25;;
74177;SDS011;62540;48.456;-4.456;2023-04-24T10:52:16;4.75;;;3.25;;
74177;SDS011;62540;48.456;-4.456;2023-04-24T10:54:46;4.00;;;4.00;;
74177;SDS011;62540;48.456;-4.456;2023-04-24T10:59:44;5.00;;;3.00;;
74177;SDS011;62540;48.456;-4.456;2023-04-24T11:02:10;6.00;;;5.00;;
74177;SDS011;62540;48.456;-4.456;2023-04-24T11:04:36;10.00;;;10.00;;
74177;SDS011;62540;48.456;-4.456;2023-04-24T11:07:04;8.00;;;5.00;;
74177;SDS011;62540;48.456;-4.456;2023-04-24T11:09:30;4.50;;;3.25;;
74177;SDS011;62540;48.456;-4.456;2023-04-24T11:12:04;4.00;;;3.00;;
74177;SDS011;62540;48.456;-4.456;2023-04-24T11:17:33;4.50;;;4.00;;
74177;SDS011;62540;48.456;-4.456;2023-04-24T11:20:11;0.25;;;0.00;;
74177;SDS011;62540;48.456;-4.456;2023-04-24T11:22:41;5.25;;;4.00;;
74177;SDS011;62540;48.456;-4.456;2023-04-24T11:25:07;4.00;;;3.00;;
74177;SDS011;62540;48.456;-4.456;2023-04-24T11:27:41;4.50;;;3.75;;
74177;SDS011;62540;48.456;-4.456;2023-04-24T11:30:09;4.00;;;3.50;;
74177;SDS011;62540;48.456;-4.456;2023-04-24T11:37:28;6.25;;;6.25;;
74177;SDS011;62540;48.456;-4.456;2023-04-24T11:39:58;5.50;;;4.75;;
74177;SDS011;62540;48.456;-4.456;2023-04-24T11:42:24;16.50;;;13.00;;
74177;SDS011;62540;48.456;-4.456;2023-04-24T11:44:51;14.75;;;12.25;;
74177;SDS011;62540;48.456;-4.456;2023-04-24T11:47:18;2.75;;;2.50;;
74177;SDS011;62540;48.456;-4.456;2023-04-24T11:49:43;3.25;;;2.75;;
74177;SDS011;62540;48.456;-4.456;2023-04-24T11:52:09;3.50;;;3.50;;
74177;SDS011;62540;48.456;-4.456;2023-04-24T11:54:35;3.00;;;1.00;;
74177;SDS011;62540;48.456;-4.456;2023-04-24T11:57:03;4.00;;;3.00;;
74177;SDS011;62540;48.456;-4.456;2023-04-24T11:59:35;2.50;;;2.00;;
74177;SDS011;62540;48.456;-4.456;2023-04-24T12:02:01;2.00;;;2.00;;
74177;SDS011;62540;48.456;-4.456;2023-04-24T12:04:26;4.00;;;3.00;;
74177;SDS011;62540;48.456;-4.456;2023-04-24T12:07:02;3.50;;;3.00;;
74177;SDS011;62540;48.456;-4.456;2023-04-24T12:09:40;2.25;;;1.50;;
74177;SDS011;62540;48.456;-4.456;2023-04-24T12:12:06;3.50;;;3.00;;
74177;SDS011;62540;48.456;-4.456;2023-04-24T12:14:32;6.00;;;3.00;;
74177;SDS011;62540;48.456;-4.456;2023-04-24T12:16:57;5.50;;;2.75;;
74177;SDS011;62540;48.456;-4.456;2023-04-24T12:19:23;2.25;;;1.25;;
74177;SDS011;62540;48.456;-4.456;2023-04-24T12:22:02;2.50;;;2.50;;
74177;SDS011;62540;48.456;-4.456;2023-04-24T12:24:30;5.00;;;3.75;;
74177;SDS011;62540;48.456;-4.456;2023-04-24T12:26:55;3.00;;;3.00;;
74177;SDS011;62540;48.456;-4.456;2023-04-24T12:29:22;1.75;;;1.75;;
74177;SDS011;62540;48.456;-4.456;2023-04-24T12:31:48;2.75;;;2.00;;
74177;SDS011;62540;48.456;-4.456;2023-04-24T12:34:31;3.00;;;3.00;;
74177;SDS011;62540;48.456;-4.456;2023-04-24T12:36:56;1.00;;;1.00;;
74177;SDS011;62540;48.456;-4.456;2023-04-24T12:39:35;2.75;;;2.00;;
74177;SDS011;62540;48.456;-4.456;2023-04-24T12:42:00;3.00;;;3.00;;
74177;SDS011;62540;48.456;-4.456;2023-04-24T12:44:33;4.00;;;4.00;;
74177;SDS011;62540;48.456;-4.456;2023-04-24T12:47:00;2.25;;;2.00;;
74177;SDS011;62540;48.456;-4.456;2023-04-24T12:49:26;2.25;;;2.25;;
74177;SDS011;62540;48.456;-4.456;2023-04-24T12:51:52;3.00;;;1.75;;
74177;SDS011;62540;48.456;-4.456;2023-04-24T12:54:18;3.50;;;2.50;;
74177;SDS011;62540;48.456;-4.456;2023-04-24T12:56:43;2.00;;;2.00;;
74177;SDS011;62540;48.456;-4.456;2023-04-24T12:59:09;2.50;;;2.25;;
74177;SDS011;62540;48.456;-4.456;2023-04-24T13:01:34;2.00;;;2.00;;
74177;SDS011;62540;48.456;-4.456;2023-04-24T13:04:00;1.50;;;1.00;;
74177;SDS011;62540;48.456;-4.456;2023-04-24T13:06:25;3.75;;;2.25;;
74177;SDS011;62540;48.456;-4.456;2023-04-24T13:08:51;4.00;;;3.00;;
74177;SDS011;62540;48.456;-4.456;2023-04-24T13:11:17;3.00;;;2.25;;
74177;SDS011;62540;48.456;-4.456;2023-04-24T13:13:42;2.25;;;2.25;;
74177;SDS011;62540;48.456;-4.456;2023-04-24T13:16:08;3.00;;;3.00;;
74177;SDS011;62540;48.456;-4.456;2023-04-24T13:18:33;5.50;;;3.75;;
74177;SDS011;62540;48.456;-4.456;2023-04-24T13:20:59;2.25;;;2.00;;
74177;SDS011;62540;48.456;-4.456;2023-04-24T13:23:24;2.25;;;1.50;;
74177;SDS011;62540;48.456;-4.456;2023-04-24T13:25:50;1.75;;;1.00;;
74177;SDS011;62540;48.456;-4.456;2023-04-24T13:28:15;2.00;;;2.00;;
74177;SDS011;62540;48.456;-4.456;2023-04-24T13:30:40;2.75;;;2.00;;
74177;SDS011;62540;48.456;-4.456;2023-04-24T13:33:06;2.00;;;1.50;;
74177;SDS011;62540;48.456;-4.456;2023-04-24T13:35:31;1.00;;;0.00;;
74177;SDS011;62540;48.456;-4.456;2023-04-24T13:37:57;3.75;;;3.00;;
74177;SDS011;62540;48.456;-4.456;2023-04-24T13:40:23;3.00;;;3.00;;
74177;SDS011;62540;48.456;-4.456;2023-04-24T13:42:48;3.25;;;2.00;;
74177;SDS011;62540;48.456;-4.456;2023-04-24T13:45:14;3.25;;;2.75;;
74177;SDS011;62540;48.456;-4.456;2023-04-24T13:47:39;2.75;;;2.75;;
74177;SDS011;62540;48.456;-4.456;2023-04-24T13:50:06;4.25;;;2.25;;
74177;SDS011;62540;48.456;-4.456;2023-04-24T13:52:33;2.00;;;2.00;;
74177;SDS011;62540;48.456;-4.456;2023-04-24T13:54:58;1.25;;;1.25;;
74177;SDS011;62540;48.456;-4.456;2023-04-24T13:57:24;2.25;;;2.25;;
74177;SDS011;62540;48.456;-4.456;2023-04-24T13:59:50;4.00;;;2.50;;
74177;SDS011;62540;48.456;-4.456;2023-04-24T14:02:15;3.00;;;2.00;;
74177;SDS011;62540;48.456;-4.456;2023-04-24T14:04:40;2.00;;;2.00;;
74177;SDS011;62540;48.456;-4.456;2023-04-24T14:07:06;2.50;;;1.50;;
74177;SDS011;62540;48.456;-4.456;2023-04-24T14:09:32;2.00;;;2.00;;
74177;SDS011;62540;48.456;-4.456;2023-04-24T14:11:58;1.75;;;1.00;;
74177;SDS011;62540;48.456;-4.456;2023-04-24T14:14:26;2.75;;;1.00;;
74177;SDS011;62540;48.456;-4.456;2023-04-24T14:16:51;2.00;;;1.00;;
74177;SDS011;62540;48.456;-4.456;2023-04-24T14:19:17;1.00;;;1.00;;
74177;SDS011;62540;48.456;-4.456;2023-04-24T14:21:42;3.00;;;2.00;;
74177;SDS011;62540;48.456;-4.456;2023-04-24T14:24:08;3.00;;;2.00;;
74177;SDS011;62540;48.456;-4.456;2023-04-24T14:26:34;2.00;;;1.00;;
74177;SDS011;62540;48.456;-4.456;2023-04-24T14:28:59;2.00;;;2.00;;
74177;SDS011;62540;48.456;-4.456;2023-04-24T14:31:25;2.25;;;2.25;;
74177;SDS011;62540;48.456;-4.456;2023-04-24T14:33:50;1.25;;;1.25;;
74177;SDS011;62540;48.456;-4.456;2023-04-24T14:36:16;2.00;;;2.00;;
74177;SDS011;62540;48.456;-4.456;2023-04-24T14:38:41;2.00;;;2.00;;